createdAt,value
2023-03-21T00:04:51.230Z,11.57
2023-03-21T00:10:04.823Z,11.25
2023-03-21T00:15:10.380Z,11.85
2023-03-21T00:20:15.997Z,11.02
2023-03-21T00:25:19.381Z,12.05
2023-03-21T00:30:22.598Z,7.63
2023-03-21T00:35:57.804Z,7.93
2023-03-21T00:40:51.607Z,7.77
2023-03-21T00:45:55.068Z,7.05
2023-03-21T00:51:00.608Z,7.22
2023-03-21T01:01:09.518Z,8.18
2023-03-21T01:06:19.218Z,8.48
2023-03-21T01:11:24.060Z,7.57
2023-03-21T01:16:27.676Z,7.93
2023-03-21T01:21:32.835Z,7.50
2023-03-21T01:26:37.479Z,7.80
2023-03-21T01:31:41.366Z,7.33
2023-03-21T01:36:46.171Z,7.15
2023-03-21T01:41:54.039Z,8.15
2023-03-21T01:47:10.935Z,7.32
2023-03-21T01:52:37.031Z,8.45
2023-03-21T01:58:04.363Z,8.10
2023-03-21T02:03:29.461Z,8.25
2023-03-21T02:08:49.082Z,7.60
2023-03-21T02:14:01.125Z,7.68
2023-03-21T02:20:00.471Z,7.00
2023-03-21T02:25:39.978Z,5.45
2023-03-21T02:31:09.696Z,5.22
2023-03-21T02:36:28.065Z,7.18
2023-03-21T02:41:40.341Z,5.13
2023-03-21T02:46:56.374Z,5.20
2023-03-21T02:52:15.556Z,5.20
2023-03-21T02:57:33.837Z,4.90
2023-03-21T03:02:44.057Z,4.68
2023-03-21T03:08:07.788Z,5.30
2023-03-21T03:13:22.561Z,5.50
2023-03-21T03:23:44.086Z,5.78
2023-03-21T03:28:53.841Z,5.22
2023-03-21T03:34:02.292Z,5.43
2023-03-21T03:39:10.704Z,5.82
2023-03-21T03:44:19.147Z,5.68
2023-03-21T03:49:37.635Z,5.15
2023-03-21T03:54:44.779Z,5.00
2023-03-21T03:59:50.239Z,4.95
2023-03-21T04:10:09.252Z,4.90
2023-03-21T04:15:20.767Z,4.65
2023-03-21T04:20:43.397Z,4.72
2023-03-21T04:25:56.429Z,5.63
2023-03-21T04:31:24.975Z,4.95
2023-03-21T04:36:39.510Z,4.57
2023-03-21T04:41:47.407Z,4.60
2023-03-21T04:46:52.200Z,4.78
2023-03-21T04:51:56.317Z,4.97
2023-03-21T04:57:00.293Z,4.18
2023-03-21T05:02:06.021Z,4.38
2023-03-21T05:07:10.030Z,4.53
2023-03-21T05:12:13.714Z,4.45
2023-03-21T05:17:23.629Z,4.68
2023-03-21T05:22:29.390Z,4.82
2023-03-21T05:27:37.466Z,4.30
2023-03-21T05:32:49.225Z,4.95
2023-03-21T05:37:53.561Z,5.32
2023-03-21T05:42:59.475Z,4.90
2023-03-21T05:48:04.604Z,4.40
2023-03-21T05:53:14.163Z,4.20
2023-03-21T05:58:18.980Z,4.53
2023-03-21T06:03:28.195Z,4.25
2023-03-21T06:08:44.377Z,4.68
2023-03-21T06:13:48.395Z,4.15
2023-03-21T06:18:53.843Z,3.97
2023-03-21T06:24:15.417Z,4.18
2023-03-21T06:29:19.138Z,4.43
2023-03-21T06:34:27.482Z,4.05
2023-03-21T06:39:31.510Z,4.47
2023-03-21T06:44:35.397Z,4.20
2023-03-21T06:49:45.076Z,3.25
2023-03-21T06:54:51.295Z,3.67
2023-03-21T06:59:55.094Z,3.60
2023-03-21T07:10:08.240Z,3.08
2023-03-21T07:15:21.484Z,3.13
2023-03-21T07:20:27.779Z,3.63
2023-03-21T07:25:31.782Z,3.22
2023-03-21T07:30:37.129Z,3.53
2023-03-21T07:35:42.032Z,3.70
2023-03-21T07:40:46.549Z,3.30
2023-03-21T07:45:51.949Z,2.95
2023-03-21T07:56:00.522Z,3.20
2023-03-21T08:01:04.134Z,4.03
2023-03-21T08:06:10.503Z,3.47
2023-03-21T08:11:14.783Z,3.50
2023-03-21T08:16:18.463Z,3.60
2023-03-21T08:21:23.535Z,3.53
2023-03-21T08:26:26.898Z,3.80
2023-03-21T08:31:30.710Z,3.03
2023-03-21T08:36:37.396Z,3.60
2023-03-21T08:41:41.117Z,3.45
2023-03-21T08:46:44.836Z,2.67
2023-03-21T08:51:50.031Z,2.95
2023-03-21T08:56:53.579Z,3.20
2023-03-21T09:01:57.550Z,2.90
2023-03-21T09:07:05.652Z,2.97
2023-03-21T09:12:09.348Z,3.10
2023-03-21T09:17:13.183Z,3.25
2023-03-21T09:22:19.248Z,3.67
2023-03-21T09:27:23.486Z,3.70
2023-03-21T09:32:27.678Z,2.97
2023-03-21T09:37:33.716Z,3.35
2023-03-21T09:42:46.353Z,3.50
2023-03-21T09:47:54.536Z,3.90
2023-03-21T09:53:02.212Z,3.72
2023-03-21T09:58:15.758Z,3.85
2023-03-21T10:03:25.072Z,4.07
2023-03-21T10:08:34.620Z,3.78
2023-03-21T10:13:44.138Z,3.08
2023-03-21T10:18:49.749Z,4.38
2023-03-21T10:23:57.082Z,3.53
2023-03-21T10:29:04.794Z,3.42
2023-03-21T10:34:15.391Z,3.83
2023-03-21T10:39:28.519Z,4.55
2023-03-21T10:44:34.102Z,4.45
2023-03-21T10:50:05.788Z,3.38
2023-03-21T10:55:21.935Z,3.67
2023-03-21T11:00:29.521Z,3.58
2023-03-21T11:05:37.871Z,2.95
2023-03-21T11:10:56.626Z,2.67
2023-03-21T11:16:08.061Z,3.35
2023-03-21T11:21:14.465Z,3.00
2023-03-21T11:26:24.586Z,3.35
2023-03-21T11:31:40.352Z,4.25
2023-03-21T11:36:43.996Z,3.63
2023-03-21T11:41:52.443Z,3.47
2023-03-21T11:46:56.510Z,3.40
2023-03-21T11:52:16.548Z,3.00
2023-03-21T11:57:27.028Z,2.38
2023-03-21T12:02:55.631Z,3.58
2023-03-21T12:08:07.583Z,3.00
2023-03-21T12:13:42.697Z,2.92
2023-03-21T12:19:09.841Z,3.03
2023-03-21T12:24:20.246Z,3.10
2023-03-21T12:29:37.896Z,2.67
2023-03-21T12:35:10.947Z,3.35
2023-03-21T12:40:22.981Z,4.32
2023-03-21T12:45:45.829Z,2.83
2023-03-21T12:50:53.765Z,3.38
2023-03-21T12:56:01.507Z,3.17
2023-03-21T13:01:08.973Z,3.63
2023-03-21T13:06:15.238Z,2.42
2023-03-21T13:11:23.352Z,2.05
2023-03-21T13:16:34.582Z,2.63
2023-03-21T13:21:51.535Z,2.03
2023-03-21T13:27:02.897Z,1.67
2023-03-21T13:32:18.560Z,2.03
2023-03-21T13:37:22.590Z,2.63
2023-03-21T13:42:33.461Z,2.15
2023-03-21T13:47:41.798Z,2.75
2023-03-21T13:53:27.323Z,1.65
2023-03-21T13:58:35.888Z,1.90
2023-03-21T14:03:41.090Z,1.88
2023-03-21T14:13:51.718Z,2.00
2023-03-21T14:18:58.318Z,1.90
2023-03-21T14:24:04.322Z,2.38
2023-03-21T14:29:24.705Z,1.73
2023-03-21T14:34:33.140Z,1.58
2023-03-21T14:39:36.628Z,1.83
2023-03-21T14:44:53.869Z,2.22
2023-03-21T14:50:01.087Z,2.17
2023-03-21T14:55:14.861Z,3.10
2023-03-21T15:00:26.382Z,2.38
2023-03-21T15:05:33.728Z,2.10
2023-03-21T15:10:38.514Z,2.40
2023-03-21T15:15:42.995Z,2.40
2023-03-21T15:20:49.541Z,2.05
2023-03-21T15:25:53.793Z,1.70
2023-03-21T15:30:57.283Z,1.60
2023-03-21T15:36:02.341Z,2.10
2023-03-21T15:41:17.184Z,1.52
2023-03-21T15:46:35.919Z,1.75
2023-03-21T15:51:42.733Z,1.80
2023-03-21T15:56:51.970Z,1.80
2023-03-21T16:01:55.844Z,2.00
2023-03-21T16:07:03.805Z,2.08
2023-03-21T16:12:12.555Z,1.63
2023-03-21T16:17:27.533Z,1.88
2023-03-21T16:22:35.326Z,1.80
2023-03-21T16:27:38.965Z,1.80
2023-03-21T16:32:42.453Z,2.22
2023-03-21T16:37:48.595Z,1.65
2023-03-21T16:42:52.187Z,1.88
2023-03-21T16:47:55.766Z,2.03
2023-03-21T16:53:01.792Z,2.03
2023-03-21T16:58:06.191Z,1.60
2023-03-21T17:03:18.419Z,2.25
2023-03-21T17:08:23.664Z,2.47
2023-03-21T17:13:27.188Z,2.80
2023-03-21T17:18:31.288Z,2.25
2023-03-21T17:23:36.239Z,2.33
2023-03-21T17:28:40.549Z,2.83
2023-03-21T17:33:44.414Z,2.55
2023-03-21T17:38:49.996Z,2.65
2023-03-21T17:43:53.555Z,3.65
2023-03-21T17:48:57.239Z,3.53
2023-03-21T17:54:02.222Z,3.47
2023-03-21T17:59:08.298Z,4.93
2023-03-21T18:04:12.144Z,4.53
2023-03-21T18:09:21.545Z,4.50
2023-03-21T18:14:28.735Z,4.22
2023-03-21T18:19:34.521Z,4.68
2023-03-21T18:24:39.260Z,4.95
2023-03-21T18:30:22.198Z,4.50
2023-03-21T18:35:06.894Z,4.75
2023-03-21T18:40:13.909Z,4.93
2023-03-21T18:45:18.228Z,5.28
2023-03-21T18:50:21.917Z,5.38
2023-03-21T18:55:44.799Z,5.78
2023-03-21T19:00:50.325Z,5.85
2023-03-21T19:05:53.671Z,5.13
2023-03-21T19:11:00.133Z,5.75
2023-03-21T19:16:10.935Z,5.78
2023-03-21T19:21:14.626Z,5.80
2023-03-21T19:26:19.193Z,6.35
2023-03-21T19:31:24.510Z,7.07
2023-03-21T19:36:28.248Z,6.88
2023-03-21T19:41:33.404Z,6.75
2023-03-21T19:46:36.783Z,8.13
2023-03-21T19:51:40.397Z,8.02
2023-03-21T19:56:47.471Z,6.40
2023-03-21T20:01:56.490Z,7.10
2023-03-21T20:07:01.837Z,6.50
2023-03-21T20:12:07.514Z,7.18
2023-03-21T20:17:11.149Z,7.80
2023-03-21T20:22:24.498Z,7.60
2023-03-21T20:27:33.110Z,7.55
2023-03-21T20:32:37.228Z,8.65
2023-03-21T20:37:41.958Z,8.07
2023-03-21T20:42:48.773Z,8.50
2023-03-21T20:47:52.393Z,8.30
2023-03-21T20:53:06.386Z,8.02
2023-03-21T20:58:36.598Z,7.63
2023-03-21T21:03:39.467Z,8.85
2023-03-21T21:08:43.090Z,8.27
2023-03-21T21:13:48.139Z,8.95
2023-03-21T21:18:51.320Z,7.90
2023-03-21T21:23:54.619Z,9.10
2023-03-21T21:29:00.404Z,9.45
2023-03-21T21:34:05.827Z,7.90
2023-03-21T21:39:09.322Z,8.02
2023-03-21T21:44:15.179Z,8.85
2023-03-21T21:54:21.608Z,7.82
2023-03-21T21:59:26.340Z,9.07
2023-03-21T22:04:31.031Z,9.05
2023-03-21T22:09:34.750Z,8.32
2023-03-21T22:14:40.943Z,9.18
2023-03-21T22:19:52.715Z,8.52
2023-03-21T22:25:02.343Z,8.85
2023-03-21T22:30:09.299Z,8.93
2023-03-21T22:35:13.153Z,8.68
2023-03-21T22:40:17.912Z,9.00
2023-03-21T22:45:22.639Z,8.60
2023-03-21T22:50:26.342Z,8.43
2023-03-21T22:55:29.942Z,9.02
2023-03-21T23:00:35.019Z,7.00
2023-03-21T23:05:40.579Z,7.50
2023-03-21T23:15:51.024Z,7.07
2023-03-21T23:20:58.340Z,7.63
2023-03-21T23:26:01.686Z,7.15
2023-03-21T23:31:11.743Z,7.30
2023-03-21T23:36:16.697Z,7.88
2023-03-21T23:41:21.499Z,7.03
2023-03-21T23:46:26.313Z,5.97
2023-03-21T23:51:29.577Z,6.53
2023-03-21T23:56:32.841Z,7.32
